Laukariz II — EA4191 — position and weather

sailwx.info

Track history (hours):
 
Tides and Currents Weather Stations Pressure Air Temp Water Temp Dewpoint Dewpoint Depression Visibility Wind Speed Wind Dir Waves Ship Positions

Laukariz II

Last reported at 2018-Jul-17 10:29 UTC. Time now 2018-Jul-23 13:51 UTC.
Position N 39°34' E 002°39'.

Length 23 m.

Type: Pleasure craft. MMSI: 224117840.

Date/timePositionNaut miles runAvg speedWind from/ knotsBaromVisibWave heightAir tempDewpointWater temp
2018-Jul-17 10:29N 39°34' E 002°39'0 0.0
2018-Jul-17 09:46N 39°34' E 002°39'0 0.0
2018-Jul-17 09:28N 39°34' E 002°39'0 0.0
2018-Jul-17 08:56N 39°34' E 002°39'0 0.0
2018-Jul-17 08:28N 39°34' E 002°39'0 0.0
2018-Jul-17 07:58N 39°34' E 002°39'0 0.0
2018-Jul-17 07:25N 39°34' E 002°39'0 0.0
2018-Jul-17 06:58N 39°34' E 002°39'0 0.0
2018-Jul-17 06:28N 39°34' E 002°39'0 0.0
2018-Jul-17 05:58N 39°34' E 002°39'0 0.0
2018-Jul-17 05:25N 39°34' E 002°39'0 0.0
2018-Jul-17 04:58N 39°34' E 002°39'0 0.0
2018-Jul-17 04:28N 39°34' E 002°39'0 0.0
2018-Jul-17 03:55N 39°34' E 002°39'0 0.0
2018-Jul-17 03:22N 39°34' E 002°39'0 0.0
2018-Jul-17 02:58N 39°34' E 002°39'0 0.0
2018-Jul-17 02:28N 39°34' E 002°39'0 0.0
2018-Jul-17 01:52N 39°34' E 002°39'0 0.0
2018-Jul-17 01:30N 39°34' E 002°39'0 0.0
2018-Jul-17 01:00N 39°34' E 002°39'0 0.0
2018-Jul-17 00:24N 39°34' E 002°39'0 0.0
2018-Jul-16 23:29N 39°34' E 002°39'0 0.0
2018-Jul-16 22:59N 39°34' E 002°39'0 0.0
2018-Jul-16 22:29N 39°34' E 002°39'0 0.0
2018-Jul-16 21:59N 39°34' E 002°39'0 0.0
2018-Jul-16 21:29N 39°34' E 002°39'0 0.2
2018-Jul-16 21:00N 39°34' E 002°38'2 4.6
2018-Jul-16 20:30N 39°32' E 002°40'4 8.9
2018-Jul-16 20:00N 39°28' E 002°42'4 8.6
2018-Jul-16 19:29N 39°24' E 002°44'4 8.1
2018-Jul-16 19:01N 39°21' E 002°47'5 8.2
2018-Jul-16 18:26N 39°17' E 002°51'4 8.1
2018-Jul-16 18:00N 39°14' E 002°53'4 7.4
2018-Jul-16 17:29N 39°10' E 002°55'1 2.1
2018-Jul-16 17:00N 39°09' E 002°56'  
2018-Jul-14 10:44N 39°24' E 002°43'2 8.1
2018-Jul-14 10:29N 39°26' E 002°42'4 8.0
2018-Jul-14 10:00N 39°29' E 002°38'4 7.2
2018-Jul-14 09:30N 39°31' E 002°35'0 0.6
2018-Jul-14 08:58N 39°32' E 002°35'0 0.0
2018-Jul-14 08:28N 39°32' E 002°35'0 0.0
2018-Jul-14 07:56N 39°32' E 002°35'0 0.0
2018-Jul-14 07:28N 39°32' E 002°35'0 0.0
2018-Jul-14 06:53N 39°32' E 002°35'0 0.0
2018-Jul-14 06:25N 39°32' E 002°35'0 0.0
2018-Jul-14 05:59N 39°32' E 002°35'0 0.0
2018-Jul-14 05:29N 39°32' E 002°35'0 0.0
2018-Jul-14 04:59N 39°32' E 002°35'0 0.0
2018-Jul-14 04:27N 39°32' E 002°35'0 0.0
2018-Jul-14 04:00N 39°32' E 002°35'0 0.0
2018-Jul-14 03:30N 39°32' E 002°35'0 0.0
2018-Jul-14 03:00N 39°32' E 002°35'0 0.0
2018-Jul-14 02:30N 39°32' E 002°35'0 0.0
2018-Jul-14 02:00N 39°32' E 002°35'0 0.0
2018-Jul-14 01:28N 39°32' E 002°35'0 0.0
2018-Jul-14 00:58N 39°32' E 002°35'0 0.0
2018-Jul-14 00:28N 39°32' E 002°35'0 0.0
2018-Jul-13 23:55N 39°32' E 002°35'0 0.0
2018-Jul-13 23:29N 39°32' E 002°35'0 0.0
2018-Jul-13 22:59N 39°32' E 002°35'0 0.0
2018-Jul-13 22:29N 39°32' E 002°35'0 0.0
2018-Jul-13 21:57N 39°32' E 002°35'0 0.0
2018-Jul-13 21:30N 39°32' E 002°35'0 0.0
2018-Jul-13 21:00N 39°32' E 002°35'0 0.0
2018-Jul-13 20:27N 39°32' E 002°35'0 0.0
2018-Jul-13 19:58N 39°32' E 002°35'2 4.8
2018-Jul-13 19:30N 39°33' E 002°38'2 2.8
2018-Jul-13 18:57N 39°34' E 002°39'0 0.0
2018-Jul-13 18:30N 39°34' E 002°39'0 0.0
2018-Jul-13 18:00N 39°34' E 002°39'0 0.0
2018-Jul-13 17:30N 39°34' E 002°39'0 0.0
2018-Jul-13 16:58N 39°34' E 002°39'0 0.0
2018-Jul-13 16:28N 39°34' E 002°39'0 0.0
2018-Jul-13 15:58N 39°34' E 002°39'0 0.0
2018-Jul-13 15:28N 39°34' E 002°39'0 0.0
2018-Jul-13 14:58N 39°34' E 002°39'0 0.0
2018-Jul-13 13:56N 39°34' E 002°39'0 0.0
2018-Jul-13 13:29N 39°34' E 002°39'0 0.0
2018-Jul-13 12:59N 39°34' E 002°39'0 0.0
2018-Jul-13 12:29N 39°34' E 002°39'0 0.0
2018-Jul-13 11:59N 39°34' E 002°39'0 0.0
2018-Jul-13 11:29N 39°34' E 002°39'0 0.0
2018-Jul-13 10:55N 39°34' E 002°39'0 0.0
2018-Jul-13 10:28N 39°34' E 002°39'0 0.0
2018-Jul-13 09:58N 39°34' E 002°39'0 0.0
2018-Jul-13 09:28N 39°34' E 002°39'0 0.0
2018-Jul-13 08:58N 39°34' E 002°39'0 0.0
2018-Jul-13 08:28N 39°34' E 002°39'0 0.0
2018-Jul-13 07:58N 39°34' E 002°39'0 0.0
2018-Jul-13 07:25N 39°34' E 002°39'0 0.0
2018-Jul-13 06:58N 39°34' E 002°39'0 0.0
2018-Jul-13 06:28N 39°34' E 002°39'0 0.0
2018-Jul-13 05:58N 39°34' E 002°39'0 0.0
2018-Jul-13 05:25N 39°34' E 002°39'0 0.0
2018-Jul-13 04:58N 39°34' E 002°39'0 0.0
2018-Jul-13 04:29N 39°34' E 002°39'0 0.0
2018-Jul-13 03:59N 39°34' E 002°39'0 0.0
2018-Jul-13 03:26N 39°34' E 002°39'0 0.0
2018-Jul-13 02:59N 39°34' E 002°39'0 0.0
2018-Jul-13 02:28N 39°34' E 002°39'0 0.0
2018-Jul-13 01:58N 39°34' E 002°39'0 0.0
2018-Jul-13 01:28N 39°34' E 002°39'0 0.0
2018-Jul-13 00:59N 39°34' E 002°39'0 0.0
2018-Jul-13 00:29N 39°34' E 002°39'0 0.0
2018-Jul-12 23:59N 39°34' E 002°39'0 0.0
2018-Jul-12 23:29N 39°34' E 002°39'0 0.0
2018-Jul-12 22:59N 39°34' E 002°39'0 0.0
2018-Jul-12 22:29N 39°34' E 002°39'0 0.0
2018-Jul-12 21:59N 39°34' E 002°39'0 0.0
2018-Jul-12 21:30N 39°34' E 002°39'0 0.0
2018-Jul-12 21:00N 39°34' E 002°39'0 0.0
2018-Jul-12 20:30N 39°34' E 002°39'0 0.0
2018-Jul-12 19:58N 39°34' E 002°39'0 0.0
2018-Jul-12 19:25N 39°34' E 002°39'0 0.0
2018-Jul-12 18:58N 39°34' E 002°39'0 0.0
2018-Jul-12 18:30N 39°34' E 002°39'0 0.0
2018-Jul-12 18:00N 39°34' E 002°39'0 0.0
2018-Jul-12 17:30N 39°34' E 002°39'0 0.0
2018-Jul-12 16:58N 39°34' E 002°39'0 0.0
2018-Jul-12 16:28N 39°34' E 002°39'0 0.0
2018-Jul-12 15:55N 39°34' E 002°39'0 0.0
2018-Jul-12 15:28N 39°34' E 002°39'0 0.0
2018-Jul-12 14:58N 39°34' E 002°39'0 0.0
2018-Jul-12 14:28N 39°34' E 002°39'0 0.0
2018-Jul-12 13:57N 39°34' E 002°39'0 0.0
2018-Jul-12 13:30N 39°34' E 002°39'0 0.0
2018-Jul-12 13:00N 39°34' E 002°39'0 0.0
2018-Jul-12 12:30N 39°34' E 002°39'0 0.0
2018-Jul-12 11:59N 39°34' E 002°39'0 0.0
2018-Jul-12 11:29N 39°34' E 002°39'0 0.0
2018-Jul-12 10:59N 39°34' E 002°39'0 0.0
2018-Jul-12 10:28N 39°34' E 002°39'0 0.0
2018-Jul-12 09:58N 39°34' E 002°39'0 0.0
2018-Jul-12 09:28N 39°34' E 002°39'0 0.0
2018-Jul-12 08:59N 39°34' E 002°39'0 0.0
2018-Jul-12 08:29N 39°34' E 002°39'0 0.0
2018-Jul-12 07:59N 39°34' E 002°39'0 0.0
2018-Jul-12 07:28N 39°34' E 002°39'0 0.0
2018-Jul-12 06:55N 39°34' E 002°39'0 0.0
2018-Jul-12 06:28N 39°34' E 002°39'0 0.0
2018-Jul-12 05:58N 39°34' E 002°39'0 0.0
2018-Jul-12 05:30N 39°34' E 002°39'0 0.0
2018-Jul-12 05:00N 39°34' E 002°39'0 0.0
2018-Jul-12 04:30N 39°34' E 002°39'0 0.0
2018-Jul-12 04:00N 39°34' E 002°39'0 0.0
2018-Jul-12 03:30N 39°34' E 002°39'0 0.0
2018-Jul-12 02:57N 39°34' E 002°39'0 0.0
2018-Jul-12 02:29N 39°34' E 002°39'0 0.0
2018-Jul-12 01:56N 39°34' E 002°39'0 0.0
2018-Jul-12 01:29N 39°34' E 002°39'0 0.0
2018-Jul-12 00:59N 39°34' E 002°39'0 0.0
2018-Jul-12 00:30N 39°34' E 002°39'0 0.0
2018-Jul-12 00:00N 39°34' E 002°39'0 0.0
2018-Jul-11 23:30N 39°34' E 002°39'0 0.0
2018-Jul-11 23:00N 39°34' E 002°39'0 0.0
2018-Jul-11 22:30N 39°34' E 002°39'0 0.0
2018-Jul-11 22:00N 39°34' E 002°39'0 0.0
2018-Jul-11 21:30N 39°34' E 002°39'0 0.0
2018-Jul-11 21:00N 39°34' E 002°39'0 0.0
2018-Jul-11 20:30N 39°34' E 002°39'0 0.0
2018-Jul-11 20:00N 39°34' E 002°39'0 0.0
2018-Jul-11 19:29N 39°34' E 002°39'0 0.0
2018-Jul-11 18:59N 39°34' E 002°39'0 0.0
2018-Jul-11 18:29N 39°34' E 002°39'0 0.0
2018-Jul-11 18:01N 39°34' E 002°39'0 0.0
2018-Jul-11 17:25N 39°34' E 002°39'0 0.0
2018-Jul-11 17:01N 39°34' E 002°39'0 0.0
2018-Jul-11 16:28N 39°34' E 002°39'0 0.0
2018-Jul-11 15:58N 39°34' E 002°39'0 0.0
2018-Jul-11 15:28N 39°34' E 002°39'0 0.0
2018-Jul-11 14:59N 39°34' E 002°39'0 0.0
2018-Jul-11 14:29N 39°34' E 002°39'0 0.0
2018-Jul-11 13:56N 39°34' E 002°39'0 0.0
2018-Jul-11 13:28N 39°34' E 002°39'0 0.0
2018-Jul-11 12:58N 39°34' E 002°39'0 0.0
2018-Jul-11 12:28N 39°34' E 002°39'0 0.0
2018-Jul-11 12:00N 39°34' E 002°39'0 0.0
2018-Jul-11 11:30N 39°34' E 002°39'0 0.0
2018-Jul-11 11:00N 39°34' E 002°39'0 0.0
2018-Jul-11 10:30N 39°34' E 002°39'0 0.0
2018-Jul-11 10:00N 39°34' E 002°39'0 0.0
2018-Jul-11 09:30N 39°34' E 002°39'0 0.0
2018-Jul-11 09:00N 39°34' E 002°39'0 0.0
2018-Jul-11 08:28N 39°34' E 002°39'0 0.0
2018-Jul-11 07:58N 39°34' E 002°39'0 0.0
2018-Jul-11 07:28N 39°34' E 002°39'0 0.0
2018-Jul-11 07:00N 39°34' E 002°39'0 0.0
2018-Jul-11 06:30N 39°34' E 002°39'0 0.0
2018-Jul-11 06:00N 39°34' E 002°39'0 0.0
2018-Jul-11 05:29N 39°34' E 002°39'0 0.0
2018-Jul-11 04:59N 39°34' E 002°39'0 0.0
2018-Jul-11 04:29N 39°34' E 002°39'0 0.0
2018-Jul-11 03:59N 39°34' E 002°39'0 0.0
2018-Jul-11 03:28N 39°34' E 002°39'0 0.0
2018-Jul-11 02:58N 39°34' E 002°39'0 0.0
2018-Jul-11 02:25N 39°34' E 002°39'0 0.0
2018-Jul-11 01:58N 39°34' E 002°39'0 0.0
2018-Jul-11 01:28N 39°34' E 002°39'0 0.0
2018-Jul-11 00:58N 39°34' E 002°39'0 0.0
2018-Jul-11 00:29N 39°34' E 002°39'0 0.0
2018-Jul-10 23:59N 39°34' E 002°39'0 0.0
2018-Jul-10 23:29N 39°34' E 002°39'0 0.0
2018-Jul-10 22:59N 39°34' E 002°39'0 0.0
2018-Jul-10 22:29N 39°34' E 002°39'0 0.0
2018-Jul-10 21:59N 39°34' E 002°39'0 0.0
2018-Jul-10 21:29N 39°34' E 002°39'0 0.0
2018-Jul-10 20:58N 39°34' E 002°39'0 0.0
2018-Jul-10 20:28N 39°34' E 002°39'0 0.0
2018-Jul-10 19:58N 39°34' E 002°39'0 0.0
2018-Jul-10 19:30N 39°34' E 002°39'0 0.0
2018-Jul-10 18:54N 39°34' E 002°39'0 0.0
2018-Jul-10 18:30N 39°34' E 002°39'0 0.0
2018-Jul-10 17:58N 39°34' E 002°39'0 0.0
2018-Jul-10 17:28N 39°34' E 002°39'0 0.0
2018-Jul-10 16:58N 39°34' E 002°39'0 0.0
2018-Jul-10 16:24N 39°34' E 002°39'0 0.0
2018-Jul-10 16:00N 39°34' E 002°39'0 0.0
2018-Jul-10 15:30N 39°34' E 002°39'0 0.0
2018-Jul-10 15:00N 39°34' E 002°39'0 0.0
2018-Jul-10 14:30N 39°34' E 002°39'0 0.0
2018-Jul-10 14:00N 39°34' E 002°39'0 0.0
2018-Jul-10 13:30N 39°34' E 002°39'0 0.0
2018-Jul-10 13:00N 39°34' E 002°39'0 0.0
2018-Jul-10 12:30N 39°34' E 002°39'0 0.0
2018-Jul-10 12:00N 39°34' E 002°39'0 0.0
2018-Jul-10 11:30N 39°34' E 002°39'0 0.0
2018-Jul-10 10:54N 39°34' E 002°39'0 0.0
2018-Jul-10 10:30N 39°34' E 002°39'0 0.0
2018-Jul-10 09:59N 39°34' E 002°39'0 0.0
2018-Jul-10 09:28N 39°34' E 002°39'0 0.0
2018-Jul-10 08:58N 39°34' E 002°39'0 0.0
2018-Jul-10 08:30N 39°34' E 002°39'0 0.0
2018-Jul-10 07:51N 39°34' E 002°39'0 0.0
2018-Jul-10 07:30N 39°34' E 002°39'0 0.0
2018-Jul-10 06:58N 39°34' E 002°39'0 0.0
2018-Jul-10 06:22N 39°34' E 002°39'0 0.0
2018-Jul-10 05:58N 39°34' E 002°39'0 0.0
2018-Jul-10 05:26N 39°34' E 002°39'0 0.0
2018-Jul-10 04:59N 39°34' E 002°39'0 0.0
2018-Jul-10 04:29N 39°34' E 002°39'0 0.0
2018-Jul-10 03:59N 39°34' E 002°39'0 0.0
2018-Jul-10 03:28N 39°34' E 002°39'0 0.0
2018-Jul-10 02:58N 39°34' E 002°39'0 0.0
2018-Jul-10 02:25N 39°34' E 002°39'0 0.0
2018-Jul-10 01:59N 39°34' E 002°39'0 0.0
2018-Jul-10 01:29N 39°34' E 002°39'0 0.0
2018-Jul-10 00:59N 39°34' E 002°39'0 0.0
2018-Jul-10 00:29N 39°34' E 002°39'0 0.0
2018-Jul-09 23:59N 39°34' E 002°39'0 0.0
2018-Jul-09 23:29N 39°34' E 002°39'0 0.0
2018-Jul-09 22:59N 39°34' E 002°39'0 0.0
2018-Jul-09 22:28N 39°34' E 002°39'0 0.0
2018-Jul-09 21:58N 39°34' E 002°39'0 0.0
2018-Jul-09 21:28N 39°34' E 002°39'0 0.0
2018-Jul-09 20:56N 39°34' E 002°39'0 0.0
2018-Jul-09 20:29N 39°34' E 002°39'0 0.0
2018-Jul-09 19:59N 39°34' E 002°39'0 0.0
2018-Jul-09 19:29N 39°34' E 002°39'0 0.0
2018-Jul-09 18:59N 39°34' E 002°39'0 0.0
2018-Jul-09 18:26N 39°34' E 002°39'0 0.0
2018-Jul-09 18:00N 39°34' E 002°39'0 0.0
2018-Jul-09 17:30N 39°34' E 002°39'0 0.0
2018-Jul-09 17:00N 39°34' E 002°39'0 0.0
2018-Jul-09 16:27N 39°34' E 002°39'0 0.0
2018-Jul-09 16:00N 39°34' E 002°39'0 0.0
2018-Jul-09 15:30N 39°34' E 002°39'0 0.0
2018-Jul-09 14:57N 39°34' E 002°39'0 0.0
2018-Jul-09 14:30N 39°34' E 002°39'0 0.0
2018-Jul-09 14:00N 39°34' E 002°39'0 0.0
2018-Jul-09 13:28N 39°34' E 002°39'0 0.0
2018-Jul-09 12:58N 39°34' E 002°39'0 0.0
2018-Jul-09 12:22N 39°34' E 002°39'0 0.0
2018-Jul-09 11:58N 39°34' E 002°39'0 0.0
2018-Jul-09 11:27N 39°34' E 002°39'0 0.0
2018-Jul-09 11:00N 39°34' E 002°39'0 0.0
2018-Jul-09 10:30N 39°34' E 002°39'0 0.0
2018-Jul-09 10:00N 39°34' E 002°39'0 0.0
2018-Jul-09 09:30N 39°34' E 002°39'0 0.0
2018-Jul-09 09:00N 39°34' E 002°39'0 0.0
2018-Jul-09 08:28N 39°34' E 002°39'0 0.0
2018-Jul-09 07:58N 39°34' E 002°39'0 0.0
2018-Jul-09 07:28N 39°34' E 002°39'0 0.0
2018-Jul-09 06:58N 39°34' E 002°39'0 0.0
2018-Jul-09 06:28N 39°34' E 002°39'0 0.0
2018-Jul-09 05:58N 39°34' E 002°39'0 0.0
2018-Jul-09 05:28N 39°34' E 002°39'0 0.0
2018-Jul-09 04:58N 39°34' E 002°39'0 0.0
2018-Jul-09 04:25N 39°34' E 002°39'0 0.0
2018-Jul-09 04:00N 39°34' E 002°39'0 0.0
2018-Jul-09 03:30N 39°34' E 002°39'0 0.0
2018-Jul-09 03:00N 39°34' E 002°39'0 0.0
2018-Jul-09 02:30N 39°34' E 002°39'0 0.0
2018-Jul-09 01:59N 39°34' E 002°39'0 0.0
2018-Jul-09 01:29N 39°34' E 002°39'0 0.0
2018-Jul-09 00:59N 39°34' E 002°39'0 0.0
2018-Jul-09 00:30N 39°34' E 002°39'0 0.0
2018-Jul-09 00:00N 39°34' E 002°39'0 0.0
2018-Jul-08 23:30N 39°34' E 002°39'0 0.0
2018-Jul-08 22:56N 39°34' E 002°39'0 0.0
2018-Jul-08 22:29N 39°34' E 002°39'0 0.0
2018-Jul-08 21:53N 39°34' E 002°39'0 0.0
2018-Jul-08 21:29N 39°34' E 002°39'0 0.0
2018-Jul-08 20:56N 39°34' E 002°39'0 0.0
2018-Jul-08 20:26N 39°34' E 002°39'0 0.0
2018-Jul-08 19:59N 39°34' E 002°39'0 0.0
2018-Jul-08 19:28N 39°34' E 002°39'0 0.0
2018-Jul-08 18:58N 39°34' E 002°39'0 0.0
2018-Jul-08 18:28N 39°34' E 002°39'0 0.0
2018-Jul-08 17:59N 39°34' E 002°39'0 0.0
2018-Jul-08 17:23N 39°34' E 002°39'0 0.0
2018-Jul-08 16:59N 39°34' E 002°39'0 0.0
2018-Jul-08 16:24N 39°34' E 002°39'0 0.0
2018-Jul-08 16:00N 39°34' E 002°39'0 0.0
2018-Jul-08 15:30N 39°34' E 002°39'0 0.0
2018-Jul-08 14:58N 39°34' E 002°39'0 0.0
2018-Jul-08 14:26N 39°34' E 002°39'2 3.8
2018-Jul-08 14:01N 39°32' E 002°38'4 8.1
2018-Jul-08 13:29N 39°30' E 002°34'1 0.4
2018-Jul-08 09:27N 39°29' E 002°32'4 8.0
2018-Jul-08 09:00N 39°31' E 002°36'3 6.4
2018-Jul-08 08:30N 39°34' E 002°38'1 1.2
2018-Jul-08 07:59N 39°34' E 002°39'0 0.0
2018-Jul-08 07:29N 39°34' E 002°39'0 0.0
2018-Jul-08 06:59N 39°34' E 002°39'0 0.0
2018-Jul-08 06:26N 39°34' E 002°39'0 0.0
2018-Jul-08 05:59N 39°34' E 002°39'0 0.0
2018-Jul-08 05:29N 39°34' E 002°39'0 0.0
2018-Jul-08 04:59N 39°34' E 002°39'0 0.0
2018-Jul-08 04:29N 39°34' E 002°39'0 0.0
2018-Jul-08 03:59N 39°34' E 002°39'0 0.0
2018-Jul-08 03:30N 39°34' E 002°39'0 0.0
2018-Jul-08 02:57N 39°34' E 002°39'0 0.0
2018-Jul-08 02:30N 39°34' E 002°39'0 0.0
2018-Jul-08 01:58N 39°34' E 002°39'0 0.0
2018-Jul-08 01:28N 39°34' E 002°39'0 0.0
2018-Jul-08 00:58N 39°34' E 002°39'0 0.0
2018-Jul-08 00:28N 39°34' E 002°39'0 0.0
2018-Jul-07 23:59N 39°34' E 002°39'0 0.0
2018-Jul-07 23:29N 39°34' E 002°39'0 0.0
2018-Jul-07 22:59N 39°34' E 002°39'0 0.0
2018-Jul-07 22:30N 39°34' E 002°39'0 0.0
2018-Jul-07 22:00N 39°34' E 002°39'0 0.0
2018-Jul-07 21:30N 39°34' E 002°39'0 0.0
2018-Jul-07 20:58N 39°34' E 002°39'0 0.0
2018-Jul-07 20:28N 39°34' E 002°39'0 0.0
2018-Jul-07 19:58N 39°34' E 002°39'0 0.0
2018-Jul-07 19:29N 39°34' E 002°39'0 0.0
2018-Jul-07 18:59N 39°34' E 002°39'0 0.0
2018-Jul-07 18:29N 39°34' E 002°39'0 0.0
2018-Jul-07 17:55N 39°34' E 002°39'0 0.0
2018-Jul-07 17:28N 39°34' E 002°39'0 0.2
2018-Jul-07 17:00N 39°34' E 002°38'3 5.8
2018-Jul-07 16:30N 39°31' E 002°37'5 8.5
2018-Jul-07 15:55N 39°28' E 002°32'  
Track history (hours):
 
Tides and Currents Weather Stations Pressure Air Temp Water Temp Dewpoint Dewpoint Depression Visibility Wind Speed Wind Dir Waves Ship Positions

Laukariz II

Last reported at 2018-Jul-17 10:29 UTC. Time now 2018-Jul-23 13:51 UTC.
Position N 39°34' E 002°39'.

Length 23 m.

Type: Pleasure craft. MMSI: 224117840.

Date/timePositionNaut miles runAvg speedWind from/ knotsBaromVisibWave heightAir tempDewpointWater temp
2018-Jul-17 10:29N 39°34' E 002°39'0 0.0
2018-Jul-17 09:46N 39°34' E 002°39'0 0.0
2018-Jul-17 09:28N 39°34' E 002°39'0 0.0
2018-Jul-17 08:56N 39°34' E 002°39'0 0.0
2018-Jul-17 08:28N 39°34' E 002°39'0 0.0
2018-Jul-17 07:58N 39°34' E 002°39'0 0.0
2018-Jul-17 07:25N 39°34' E 002°39'0 0.0
2018-Jul-17 06:58N 39°34' E 002°39'0 0.0
2018-Jul-17 06:28N 39°34' E 002°39'0 0.0
2018-Jul-17 05:58N 39°34' E 002°39'0 0.0
2018-Jul-17 05:25N 39°34' E 002°39'0 0.0
2018-Jul-17 04:58N 39°34' E 002°39'0 0.0
2018-Jul-17 04:28N 39°34' E 002°39'0 0.0
2018-Jul-17 03:55N 39°34' E 002°39'0 0.0
2018-Jul-17 03:22N 39°34' E 002°39'0 0.0
2018-Jul-17 02:58N 39°34' E 002°39'0 0.0
2018-Jul-17 02:28N 39°34' E 002°39'0 0.0
2018-Jul-17 01:52N 39°34' E 002°39'0 0.0
2018-Jul-17 01:30N 39°34' E 002°39'0 0.0
2018-Jul-17 01:00N 39°34' E 002°39'0 0.0
2018-Jul-17 00:24N 39°34' E 002°39'0 0.0
2018-Jul-16 23:29N 39°34' E 002°39'0 0.0
2018-Jul-16 22:59N 39°34' E 002°39'0 0.0
2018-Jul-16 22:29N 39°34' E 002°39'0 0.0
2018-Jul-16 21:59N 39°34' E 002°39'0 0.0
2018-Jul-16 21:29N 39°34' E 002°39'0 0.2
2018-Jul-16 21:00N 39°34' E 002°38'2 4.6
2018-Jul-16 20:30N 39°32' E 002°40'4 8.9
2018-Jul-16 20:00N 39°28' E 002°42'4 8.6
2018-Jul-16 19:29N 39°24' E 002°44'4 8.1
2018-Jul-16 19:01N 39°21' E 002°47'5 8.2
2018-Jul-16 18:26N 39°17' E 002°51'4 8.1
2018-Jul-16 18:00N 39°14' E 002°53'4 7.4
2018-Jul-16 17:29N 39°10' E 002°55'1 2.1
2018-Jul-16 17:00N 39°09' E 002°56'  
2018-Jul-14 10:44N 39°24' E 002°43'2 8.1
2018-Jul-14 10:29N 39°26' E 002°42'4 8.0
2018-Jul-14 10:00N 39°29' E 002°38'4 7.2
2018-Jul-14 09:30N 39°31' E 002°35'0 0.6
2018-Jul-14 08:58N 39°32' E 002°35'0 0.0
2018-Jul-14 08:28N 39°32' E 002°35'0 0.0
2018-Jul-14 07:56N 39°32' E 002°35'0 0.0
2018-Jul-14 07:28N 39°32' E 002°35'0 0.0
2018-Jul-14 06:53N 39°32' E 002°35'0 0.0
2018-Jul-14 06:25N 39°32' E 002°35'0 0.0
2018-Jul-14 05:59N 39°32' E 002°35'0 0.0
2018-Jul-14 05:29N 39°32' E 002°35'0 0.0
2018-Jul-14 04:59N 39°32' E 002°35'0 0.0
2018-Jul-14 04:27N 39°32' E 002°35'0 0.0
2018-Jul-14 04:00N 39°32' E 002°35'0 0.0
2018-Jul-14 03:30N 39°32' E 002°35'0 0.0
2018-Jul-14 03:00N 39°32' E 002°35'0 0.0
2018-Jul-14 02:30N 39°32' E 002°35'0 0.0
2018-Jul-14 02:00N 39°32' E 002°35'0 0.0
2018-Jul-14 01:28N 39°32' E 002°35'0 0.0
2018-Jul-14 00:58N 39°32' E 002°35'0 0.0
2018-Jul-14 00:28N 39°32' E 002°35'0 0.0
2018-Jul-13 23:55N 39°32' E 002°35'0 0.0
2018-Jul-13 23:29N 39°32' E 002°35'0 0.0
2018-Jul-13 22:59N 39°32' E 002°35'0 0.0
2018-Jul-13 22:29N 39°32' E 002°35'0 0.0
2018-Jul-13 21:57N 39°32' E 002°35'0 0.0
2018-Jul-13 21:30N 39°32' E 002°35'0 0.0
2018-Jul-13 21:00N 39°32' E 002°35'0 0.0
2018-Jul-13 20:27N 39°32' E 002°35'0 0.0
2018-Jul-13 19:58N 39°32' E 002°35'2 4.8
2018-Jul-13 19:30N 39°33' E 002°38'2 2.8
2018-Jul-13 18:57N 39°34' E 002°39'0 0.0
2018-Jul-13 18:30N 39°34' E 002°39'0 0.0
2018-Jul-13 18:00N 39°34' E 002°39'0 0.0
2018-Jul-13 17:30N 39°34' E 002°39'0 0.0
2018-Jul-13 16:58N 39°34' E 002°39'0 0.0
2018-Jul-13 16:28N 39°34' E 002°39'0 0.0
2018-Jul-13 15:58N 39°34' E 002°39'0 0.0
2018-Jul-13 15:28N 39°34' E 002°39'0 0.0
2018-Jul-13 14:58N 39°34' E 002°39'0 0.0
2018-Jul-13 13:56N 39°34' E 002°39'0 0.0
2018-Jul-13 13:29N 39°34' E 002°39'0 0.0
2018-Jul-13 12:59N 39°34' E 002°39'0 0.0
2018-Jul-13 12:29N 39°34' E 002°39'0 0.0
2018-Jul-13 11:59N 39°34' E 002°39'0 0.0
2018-Jul-13 11:29N 39°34' E 002°39'0 0.0
2018-Jul-13 10:55N 39°34' E 002°39'0 0.0
2018-Jul-13 10:28N 39°34' E 002°39'0 0.0
2018-Jul-13 09:58N 39°34' E 002°39'0 0.0
2018-Jul-13 09:28N 39°34' E 002°39'0 0.0
2018-Jul-13 08:58N 39°34' E 002°39'0 0.0
2018-Jul-13 08:28N 39°34' E 002°39'0 0.0
2018-Jul-13 07:58N 39°34' E 002°39'0 0.0
2018-Jul-13 07:25N 39°34' E 002°39'0 0.0
2018-Jul-13 06:58N 39°34' E 002°39'0 0.0
2018-Jul-13 06:28N 39°34' E 002°39'0 0.0
2018-Jul-13 05:58N 39°34' E 002°39'0 0.0
2018-Jul-13 05:25N 39°34' E 002°39'0 0.0
2018-Jul-13 04:58N 39°34' E 002°39'0 0.0
2018-Jul-13 04:29N 39°34' E 002°39'0 0.0
2018-Jul-13 03:59N 39°34' E 002°39'0 0.0
2018-Jul-13 03:26N 39°34' E 002°39'0 0.0
2018-Jul-13 02:59N 39°34' E 002°39'0 0.0
2018-Jul-13 02:28N 39°34' E 002°39'0 0.0
2018-Jul-13 01:58N 39°34' E 002°39'0 0.0
2018-Jul-13 01:28N 39°34' E 002°39'0 0.0
2018-Jul-13 00:59N 39°34' E 002°39'0 0.0
2018-Jul-13 00:29N 39°34' E 002°39'0 0.0
2018-Jul-12 23:59N 39°34' E 002°39'0 0.0
2018-Jul-12 23:29N 39°34' E 002°39'0 0.0
2018-Jul-12 22:59N 39°34' E 002°39'0 0.0
2018-Jul-12 22:29N 39°34' E 002°39'0 0.0
2018-Jul-12 21:59N 39°34' E 002°39'0 0.0
2018-Jul-12 21:30N 39°34' E 002°39'0 0.0
2018-Jul-12 21:00N 39°34' E 002°39'0 0.0
2018-Jul-12 20:30N 39°34' E 002°39'0 0.0
2018-Jul-12 19:58N 39°34' E 002°39'0 0.0
2018-Jul-12 19:25N 39°34' E 002°39'0 0.0
2018-Jul-12 18:58N 39°34' E 002°39'0 0.0
2018-Jul-12 18:30N 39°34' E 002°39'0 0.0
2018-Jul-12 18:00N 39°34' E 002°39'0 0.0
2018-Jul-12 17:30N 39°34' E 002°39'0 0.0
2018-Jul-12 16:58N 39°34' E 002°39'0 0.0
2018-Jul-12 16:28N 39°34' E 002°39'0 0.0
2018-Jul-12 15:55N 39°34' E 002°39'0 0.0
2018-Jul-12 15:28N 39°34' E 002°39'0 0.0
2018-Jul-12 14:58N 39°34' E 002°39'0 0.0
2018-Jul-12 14:28N 39°34' E 002°39'0 0.0
2018-Jul-12 13:57N 39°34' E 002°39'0 0.0
2018-Jul-12 13:30N 39°34' E 002°39'0 0.0
2018-Jul-12 13:00N 39°34' E 002°39'0 0.0
2018-Jul-12 12:30N 39°34' E 002°39'0 0.0
2018-Jul-12 11:59N 39°34' E 002°39'0 0.0
2018-Jul-12 11:29N 39°34' E 002°39'0 0.0
2018-Jul-12 10:59N 39°34' E 002°39'0 0.0
2018-Jul-12 10:28N 39°34' E 002°39'0 0.0
2018-Jul-12 09:58N 39°34' E 002°39'0 0.0
2018-Jul-12 09:28N 39°34' E 002°39'0 0.0
2018-Jul-12 08:59N 39°34' E 002°39'0 0.0
2018-Jul-12 08:29N 39°34' E 002°39'0 0.0
2018-Jul-12 07:59N 39°34' E 002°39'0 0.0
2018-Jul-12 07:28N 39°34' E 002°39'0 0.0
2018-Jul-12 06:55N 39°34' E 002°39'0 0.0
2018-Jul-12 06:28N 39°34' E 002°39'0 0.0
2018-Jul-12 05:58N 39°34' E 002°39'0 0.0
2018-Jul-12 05:30N 39°34' E 002°39'0 0.0
2018-Jul-12 05:00N 39°34' E 002°39'0 0.0
2018-Jul-12 04:30N 39°34' E 002°39'0 0.0
2018-Jul-12 04:00N 39°34' E 002°39'0 0.0
2018-Jul-12 03:30N 39°34' E 002°39'0 0.0
2018-Jul-12 02:57N 39°34' E 002°39'0 0.0
2018-Jul-12 02:29N 39°34' E 002°39'0 0.0
2018-Jul-12 01:56N 39°34' E 002°39'0 0.0
2018-Jul-12 01:29N 39°34' E 002°39'0 0.0
2018-Jul-12 00:59N 39°34' E 002°39'0 0.0
2018-Jul-12 00:30N 39°34' E 002°39'0 0.0
2018-Jul-12 00:00N 39°34' E 002°39'0 0.0
2018-Jul-11 23:30N 39°34' E 002°39'0 0.0
2018-Jul-11 23:00N 39°34' E 002°39'0 0.0
2018-Jul-11 22:30N 39°34' E 002°39'0 0.0
2018-Jul-11 22:00N 39°34' E 002°39'0 0.0
2018-Jul-11 21:30N 39°34' E 002°39'0 0.0
2018-Jul-11 21:00N 39°34' E 002°39'0 0.0
2018-Jul-11 20:30N 39°34' E 002°39'0 0.0
2018-Jul-11 20:00N 39°34' E 002°39'0 0.0
2018-Jul-11 19:29N 39°34' E 002°39'0 0.0
2018-Jul-11 18:59N 39°34' E 002°39'0 0.0
2018-Jul-11 18:29N 39°34' E 002°39'0 0.0
2018-Jul-11 18:01N 39°34' E 002°39'0 0.0
2018-Jul-11 17:25N 39°34' E 002°39'0 0.0
2018-Jul-11 17:01N 39°34' E 002°39'0 0.0
2018-Jul-11 16:28N 39°34' E 002°39'0 0.0
2018-Jul-11 15:58N 39°34' E 002°39'0 0.0
2018-Jul-11 15:28N 39°34' E 002°39'0 0.0
2018-Jul-11 14:59N 39°34' E 002°39'0 0.0
2018-Jul-11 14:29N 39°34' E 002°39'0 0.0
2018-Jul-11 13:56N 39°34' E 002°39'0 0.0
2018-Jul-11 13:28N 39°34' E 002°39'0 0.0
2018-Jul-11 12:58N 39°34' E 002°39'0 0.0
2018-Jul-11 12:28N 39°34' E 002°39'0 0.0
2018-Jul-11 12:00N 39°34' E 002°39'0 0.0
2018-Jul-11 11:30N 39°34' E 002°39'0 0.0
2018-Jul-11 11:00N 39°34' E 002°39'0 0.0
2018-Jul-11 10:30N 39°34' E 002°39'0 0.0
2018-Jul-11 10:00N 39°34' E 002°39'0 0.0
2018-Jul-11 09:30N 39°34' E 002°39'0 0.0
2018-Jul-11 09:00N 39°34' E 002°39'0 0.0
2018-Jul-11 08:28N 39°34' E 002°39'0 0.0
2018-Jul-11 07:58N 39°34' E 002°39'0 0.0
2018-Jul-11 07:28N 39°34' E 002°39'0 0.0
2018-Jul-11 07:00N 39°34' E 002°39'0 0.0
2018-Jul-11 06:30N 39°34' E 002°39'0 0.0
2018-Jul-11 06:00N 39°34' E 002°39'0 0.0
2018-Jul-11 05:29N 39°34' E 002°39'0 0.0
2018-Jul-11 04:59N 39°34' E 002°39'0 0.0
2018-Jul-11 04:29N 39°34' E 002°39'0 0.0
2018-Jul-11 03:59N 39°34' E 002°39'0 0.0
2018-Jul-11 03:28N 39°34' E 002°39'0 0.0
2018-Jul-11 02:58N 39°34' E 002°39'0 0.0
2018-Jul-11 02:25N 39°34' E 002°39'0 0.0
2018-Jul-11 01:58N 39°34' E 002°39'0 0.0
2018-Jul-11 01:28N 39°34' E 002°39'0 0.0
2018-Jul-11 00:58N 39°34' E 002°39'0 0.0
2018-Jul-11 00:29N 39°34' E 002°39'0 0.0
2018-Jul-10 23:59N 39°34' E 002°39'0 0.0
2018-Jul-10 23:29N 39°34' E 002°39'0 0.0
2018-Jul-10 22:59N 39°34' E 002°39'0 0.0
2018-Jul-10 22:29N 39°34' E 002°39'0 0.0
2018-Jul-10 21:59N 39°34' E 002°39'0 0.0
2018-Jul-10 21:29N 39°34' E 002°39'0 0.0
2018-Jul-10 20:58N 39°34' E 002°39'0 0.0
2018-Jul-10 20:28N 39°34' E 002°39'0 0.0
2018-Jul-10 19:58N 39°34' E 002°39'0 0.0
2018-Jul-10 19:30N 39°34' E 002°39'0 0.0
2018-Jul-10 18:54N 39°34' E 002°39'0 0.0
2018-Jul-10 18:30N 39°34' E 002°39'0 0.0
2018-Jul-10 17:58N 39°34' E 002°39'0 0.0
2018-Jul-10 17:28N 39°34' E 002°39'0 0.0
2018-Jul-10 16:58N 39°34' E 002°39'0 0.0
2018-Jul-10 16:24N 39°34' E 002°39'0 0.0
2018-Jul-10 16:00N 39°34' E 002°39'0 0.0
2018-Jul-10 15:30N 39°34' E 002°39'0 0.0
2018-Jul-10 15:00N 39°34' E 002°39'0 0.0
2018-Jul-10 14:30N 39°34' E 002°39'0 0.0
2018-Jul-10 14:00N 39°34' E 002°39'0 0.0
2018-Jul-10 13:30N 39°34' E 002°39'0 0.0
2018-Jul-10 13:00N 39°34' E 002°39'0 0.0
2018-Jul-10 12:30N 39°34' E 002°39'0 0.0
2018-Jul-10 12:00N 39°34' E 002°39'0 0.0
2018-Jul-10 11:30N 39°34' E 002°39'0 0.0
2018-Jul-10 10:54N 39°34' E 002°39'0 0.0
2018-Jul-10 10:30N 39°34' E 002°39'0 0.0
2018-Jul-10 09:59N 39°34' E 002°39'0 0.0
2018-Jul-10 09:28N 39°34' E 002°39'0 0.0
2018-Jul-10 08:58N 39°34' E 002°39'0 0.0
2018-Jul-10 08:30N 39°34' E 002°39'0 0.0
2018-Jul-10 07:51N 39°34' E 002°39'0 0.0
2018-Jul-10 07:30N 39°34' E 002°39'0 0.0
2018-Jul-10 06:58N 39°34' E 002°39'0 0.0
2018-Jul-10 06:22N 39°34' E 002°39'0 0.0
2018-Jul-10 05:58N 39°34' E 002°39'0 0.0
2018-Jul-10 05:26N 39°34' E 002°39'0 0.0
2018-Jul-10 04:59N 39°34' E 002°39'0 0.0
2018-Jul-10 04:29N 39°34' E 002°39'0 0.0
2018-Jul-10 03:59N 39°34' E 002°39'0 0.0
2018-Jul-10 03:28N 39°34' E 002°39'0 0.0
2018-Jul-10 02:58N 39°34' E 002°39'0 0.0
2018-Jul-10 02:25N 39°34' E 002°39'0 0.0
2018-Jul-10 01:59N 39°34' E 002°39'0 0.0
2018-Jul-10 01:29N 39°34' E 002°39'0 0.0
2018-Jul-10 00:59N 39°34' E 002°39'0 0.0
2018-Jul-10 00:29N 39°34' E 002°39'0 0.0
2018-Jul-09 23:59N 39°34' E 002°39'0 0.0
2018-Jul-09 23:29N 39°34' E 002°39'0 0.0
2018-Jul-09 22:59N 39°34' E 002°39'0 0.0
2018-Jul-09 22:28N 39°34' E 002°39'0 0.0
2018-Jul-09 21:58N 39°34' E 002°39'0 0.0
2018-Jul-09 21:28N 39°34' E 002°39'0 0.0
2018-Jul-09 20:56N 39°34' E 002°39'0 0.0
2018-Jul-09 20:29N 39°34' E 002°39'0 0.0
2018-Jul-09 19:59N 39°34' E 002°39'0 0.0
2018-Jul-09 19:29N 39°34' E 002°39'0 0.0
2018-Jul-09 18:59N 39°34' E 002°39'0 0.0
2018-Jul-09 18:26N 39°34' E 002°39'0 0.0
2018-Jul-09 18:00N 39°34' E 002°39'0 0.0
2018-Jul-09 17:30N 39°34' E 002°39'0 0.0
2018-Jul-09 17:00N 39°34' E 002°39'0 0.0
2018-Jul-09 16:27N 39°34' E 002°39'0 0.0
2018-Jul-09 16:00N 39°34' E 002°39'0 0.0
2018-Jul-09 15:30N 39°34' E 002°39'0 0.0
2018-Jul-09 14:57N 39°34' E 002°39'0 0.0
2018-Jul-09 14:30N 39°34' E 002°39'0 0.0
2018-Jul-09 14:00N 39°34' E 002°39'0 0.0
2018-Jul-09 13:28N 39°34' E 002°39'0 0.0
2018-Jul-09 12:58N 39°34' E 002°39'0 0.0
2018-Jul-09 12:22N 39°34' E 002°39'0 0.0
2018-Jul-09 11:58N 39°34' E 002°39'0 0.0
2018-Jul-09 11:27N 39°34' E 002°39'0 0.0
2018-Jul-09 11:00N 39°34' E 002°39'0 0.0
2018-Jul-09 10:30N 39°34' E 002°39'0 0.0
2018-Jul-09 10:00N 39°34' E 002°39'0 0.0
2018-Jul-09 09:30N 39°34' E 002°39'0 0.0
2018-Jul-09 09:00N 39°34' E 002°39'0 0.0
2018-Jul-09 08:28N 39°34' E 002°39'0 0.0
2018-Jul-09 07:58N 39°34' E 002°39'0 0.0
2018-Jul-09 07:28N 39°34' E 002°39'0 0.0
2018-Jul-09 06:58N 39°34' E 002°39'0 0.0
2018-Jul-09 06:28N 39°34' E 002°39'0 0.0
2018-Jul-09 05:58N 39°34' E 002°39'0 0.0
2018-Jul-09 05:28N 39°34' E 002°39'0 0.0
2018-Jul-09 04:58N 39°34' E 002°39'0 0.0
2018-Jul-09 04:25N 39°34' E 002°39'0 0.0
2018-Jul-09 04:00N 39°34' E 002°39'0 0.0
2018-Jul-09 03:30N 39°34' E 002°39'0 0.0
2018-Jul-09 03:00N 39°34' E 002°39'0 0.0
2018-Jul-09 02:30N 39°34' E 002°39'0 0.0
2018-Jul-09 01:59N 39°34' E 002°39'0 0.0
2018-Jul-09 01:29N 39°34' E 002°39'0 0.0
2018-Jul-09 00:59N 39°34' E 002°39'0 0.0
2018-Jul-09 00:30N 39°34' E 002°39'0 0.0
2018-Jul-09 00:00N 39°34' E 002°39'0 0.0
2018-Jul-08 23:30N 39°34' E 002°39'0 0.0
2018-Jul-08 22:56N 39°34' E 002°39'0 0.0
2018-Jul-08 22:29N 39°34' E 002°39'0 0.0
2018-Jul-08 21:53N 39°34' E 002°39'0 0.0
2018-Jul-08 21:29N 39°34' E 002°39'0 0.0
2018-Jul-08 20:56N 39°34' E 002°39'0 0.0
2018-Jul-08 20:26N 39°34' E 002°39'0 0.0
2018-Jul-08 19:59N 39°34' E 002°39'0 0.0
2018-Jul-08 19:28N 39°34' E 002°39'0 0.0
2018-Jul-08 18:58N 39°34' E 002°39'0 0.0
2018-Jul-08 18:28N 39°34' E 002°39'0 0.0
2018-Jul-08 17:59N 39°34' E 002°39'0 0.0
2018-Jul-08 17:23N 39°34' E 002°39'0 0.0
2018-Jul-08 16:59N 39°34' E 002°39'0 0.0
2018-Jul-08 16:24N 39°34' E 002°39'0 0.0
2018-Jul-08 16:00N 39°34' E 002°39'0 0.0
2018-Jul-08 15:30N 39°34' E 002°39'0 0.0
2018-Jul-08 14:58N 39°34' E 002°39'0 0.0
2018-Jul-08 14:26N 39°34' E 002°39'2 3.8
2018-Jul-08 14:01N 39°32' E 002°38'4 8.1
2018-Jul-08 13:29N 39°30' E 002°34'1 0.4
2018-Jul-08 09:27N 39°29' E 002°32'4 8.0
2018-Jul-08 09:00N 39°31' E 002°36'3 6.4
2018-Jul-08 08:30N 39°34' E 002°38'1 1.2
2018-Jul-08 07:59N 39°34' E 002°39'0 0.0
2018-Jul-08 07:29N 39°34' E 002°39'0 0.0
2018-Jul-08 06:59N 39°34' E 002°39'0 0.0
2018-Jul-08 06:26N 39°34' E 002°39'0 0.0
2018-Jul-08 05:59N 39°34' E 002°39'0 0.0
2018-Jul-08 05:29N 39°34' E 002°39'0 0.0
2018-Jul-08 04:59N 39°34' E 002°39'0 0.0
2018-Jul-08 04:29N 39°34' E 002°39'0 0.0
2018-Jul-08 03:59N 39°34' E 002°39'0 0.0
2018-Jul-08 03:30N 39°34' E 002°39'0 0.0
2018-Jul-08 02:57N 39°34' E 002°39'0 0.0
2018-Jul-08 02:30N 39°34' E 002°39'0 0.0
2018-Jul-08 01:58N 39°34' E 002°39'0 0.0
2018-Jul-08 01:28N 39°34' E 002°39'0 0.0
2018-Jul-08 00:58N 39°34' E 002°39'0 0.0
2018-Jul-08 00:28N 39°34' E 002°39'0 0.0
2018-Jul-07 23:59N 39°34' E 002°39'0 0.0
2018-Jul-07 23:29N 39°34' E 002°39'0 0.0
2018-Jul-07 22:59N 39°34' E 002°39'0 0.0
2018-Jul-07 22:30N 39°34' E 002°39'0 0.0
2018-Jul-07 22:00N 39°34' E 002°39'0 0.0
2018-Jul-07 21:30N 39°34' E 002°39'0 0.0
2018-Jul-07 20:58N 39°34' E 002°39'0 0.0
2018-Jul-07 20:28N 39°34' E 002°39'0 0.0
2018-Jul-07 19:58N 39°34' E 002°39'0 0.0
2018-Jul-07 19:29N 39°34' E 002°39'0 0.0
2018-Jul-07 18:59N 39°34' E 002°39'0 0.0
2018-Jul-07 18:29N 39°34' E 002°39'0 0.0
2018-Jul-07 17:55N 39°34' E 002°39'0 0.0
2018-Jul-07 17:28N 39°34' E 002°39'0 0.2
2018-Jul-07 17:00N 39°34' E 002°38'3 5.8
2018-Jul-07 16:30N 39°31' E 002°37'5 8.5
2018-Jul-07 15:55N 39°28' E 002°32'  

Dump ship's entire track history